JBU2859 KFLL-MYNN
Flight info
| Callsign | JBU2859 |
|---|---|
| Flight time | 0h 31m |
| Altitude | 17000 |
| Route | SNAPR2 RAJAY |
| Aircraft | A320/M-SDE3FGHIRWY/LB1 |
Departure
| Time | 2026-05-04 19:40 |
|---|---|
| Airport | Fort Lauderdale Hollywood International Airport (KFLL) |
Arrival
| Time | 2026-05-04 20:11 |
|---|---|
| Airport | Lynden Pindling International Airport (MYNN) |
| Time | Latitude | Longitude | Altitude | Speed | Heading |
|---|---|---|---|---|---|
| 2026-05-04 19:22 | 26.07308 | -80.14735 | 25 ft | 0 kts | 68° |
| 2026-05-04 19:30 | 26.07300 | -80.14756 | 22 ft | 4 kts | 67° |
| 2026-05-04 19:30 | 26.07290 | -80.14783 | 26 ft | 4 kts | 65° |
| 2026-05-04 19:31 | 26.07278 | -80.14810 | 23 ft | 4 kts | 61° |
| 2026-05-04 19:31 | 26.07264 | -80.14835 | 22 ft | 3 kts | 52° |
| 2026-05-04 19:31 | 26.07261 | -80.14839 | 24 ft | 0 kts | 51° |
| 2026-05-04 19:34 | 26.07263 | -80.14837 | 22 ft | 2 kts | 47° |
| 2026-05-04 19:34 | 26.07281 | -80.14831 | 23 ft | 4 kts | 0° |
| 2026-05-04 19:34 | 26.07316 | -80.14844 | 23 ft | 8 kts | 338° |
| 2026-05-04 19:35 | 26.07379 | -80.14903 | 22 ft | 14 kts | 295° |
| 2026-05-04 19:35 | 26.07436 | -80.14984 | 20 ft | 13 kts | 312° |
| 2026-05-04 19:35 | 26.07499 | -80.15050 | 20 ft | 12 kts | 315° |
| 2026-05-04 19:35 | 26.07556 | -80.15123 | 19 ft | 13 kts | 299° |
| 2026-05-04 19:36 | 26.07563 | -80.15231 | 17 ft | 14 kts | 271° |
| 2026-05-04 19:36 | 26.07565 | -80.15337 | 17 ft | 13 kts | 271° |
| 2026-05-04 19:36 | 26.07565 | -80.15438 | 17 ft | 13 kts | 270° |
| 2026-05-04 19:36 | 26.07566 | -80.15531 | 17 ft | 11 kts | 271° |
| 2026-05-04 19:37 | 26.07567 | -80.15613 | 18 ft | 10 kts | 271° |
| 2026-05-04 19:37 | 26.07567 | -80.15681 | 19 ft | 9 kts | 269° |
| 2026-05-04 19:37 | 26.07567 | -80.15762 | 20 ft | 12 kts | 270° |
| 2026-05-04 19:37 | 26.07568 | -80.15868 | 22 ft | 15 kts | 270° |
| 2026-05-04 19:38 | 26.07569 | -80.15999 | 24 ft | 19 kts | 271° |
| 2026-05-04 19:38 | 26.07571 | -80.16138 | 25 ft | 17 kts | 271° |
| 2026-05-04 19:38 | 26.07570 | -80.16262 | 28 ft | 15 kts | 271° |
| 2026-05-04 19:38 | 26.07572 | -80.16376 | 26 ft | 14 kts | 271° |
| 2026-05-04 19:39 | 26.07568 | -80.16488 | 25 ft | 15 kts | 270° |
| 2026-05-04 19:39 | 26.07574 | -80.16600 | 23 ft | 14 kts | 278° |
| 2026-05-04 19:39 | 26.07651 | -80.16642 | 22 ft | 14 kts | 8° |
| 2026-05-04 19:39 | 26.07695 | -80.16578 | 22 ft | 9 kts | 86° |
| 2026-05-04 19:40 | 26.07694 | -80.16511 | 24 ft | 10 kts | 92° |
| 2026-05-04 19:40 | 26.07692 | -80.16226 | 26 ft | 78 kts | 92° |
| 2026-05-04 19:40 | 26.07689 | -80.15331 | 21 ft | 150 kts | 89° |
| 2026-05-04 19:40 | 26.07693 | -80.14095 | 628 ft | 165 kts | 89° |
| 2026-05-04 19:41 | 26.07704 | -80.12774 | 1485 ft | 179 kts | 84° |
| 2026-05-04 19:41 | 26.07727 | -80.11308 | 2088 ft | 201 kts | 84° |
| 2026-05-04 19:41 | 26.07765 | -80.09651 | 2682 ft | 228 kts | 86° |
| 2026-05-04 19:41 | 26.07786 | -80.07785 | 3397 ft | 250 kts | 85° |
| 2026-05-04 19:42 | 26.07804 | -80.05815 | 4396 ft | 260 kts | 88° |
| 2026-05-04 19:42 | 26.07821 | -80.03760 | 5267 ft | 272 kts | 88° |
| 2026-05-04 19:42 | 26.07836 | -80.01621 | 6077 ft | 280 kts | 88° |
| 2026-05-04 19:42 | 26.07844 | -79.99455 | 6785 ft | 289 kts | 88° |
| 2026-05-04 19:43 | 26.07831 | -79.97195 | 7497 ft | 297 kts | 90° |
| 2026-05-04 19:43 | 26.07803 | -79.94881 | 8273 ft | 302 kts | 90° |
| 2026-05-04 19:43 | 26.07771 | -79.92514 | 9015 ft | 309 kts | 91° |
| 2026-05-04 19:43 | 26.07738 | -79.90119 | 9746 ft | 315 kts | 91° |
| 2026-05-04 19:44 | 26.07705 | -79.87624 | 10267 ft | 331 kts | 91° |
| 2026-05-04 19:44 | 26.07672 | -79.84984 | 10503 ft | 353 kts | 91° |
| 2026-05-04 19:44 | 26.07436 | -79.82219 | 10964 ft | 364 kts | 102° |
| 2026-05-04 19:44 | 26.06851 | -79.79460 | 11663 ft | 369 kts | 105° |
| 2026-05-04 19:45 | 26.06248 | -79.76669 | 12358 ft | 374 kts | 105° |
| 2026-05-04 19:45 | 26.05643 | -79.73844 | 13028 ft | 378 kts | 105° |
| 2026-05-04 19:45 | 26.05029 | -79.70977 | 13690 ft | 383 kts | 105° |
| 2026-05-04 19:45 | 26.04409 | -79.68084 | 14277 ft | 387 kts | 105° |
| 2026-05-04 19:46 | 26.03780 | -79.65153 | 14850 ft | 391 kts | 106° |
| 2026-05-04 19:46 | 26.03139 | -79.62240 | 15410 ft | 395 kts | 107° |
| 2026-05-04 19:46 | 26.02452 | -79.59270 | 15968 ft | 398 kts | 107° |
| 2026-05-04 19:46 | 26.01740 | -79.56283 | 16527 ft | 402 kts | 108° |
| 2026-05-04 19:47 | 26.01013 | -79.53260 | 17086 ft | 406 kts | 108° |
| 2026-05-04 19:47 | 26.00282 | -79.50211 | 17648 ft | 410 kts | 108° |
| 2026-05-04 19:47 | 25.99551 | -79.47135 | 18205 ft | 414 kts | 108° |
| 2026-05-04 19:47 | 25.98818 | -79.44022 | 18690 ft | 418 kts | 107° |
| 2026-05-04 19:48 | 25.98084 | -79.40893 | 18904 ft | 420 kts | 107° |
| 2026-05-04 19:48 | 25.97586 | -79.38814 | 18950 ft | 417 kts | 110° |
| 2026-05-04 19:48 | 25.96596 | -79.35768 | 18977 ft | 412 kts | 115° |
| 2026-05-04 19:48 | 25.95581 | -79.32842 | 18975 ft | 411 kts | 115° |
| 2026-05-04 19:49 | 25.94548 | -79.29878 | 18976 ft | 410 kts | 115° |
| 2026-05-04 19:49 | 25.93516 | -79.26924 | 18970 ft | 410 kts | 115° |
| 2026-05-04 19:49 | 25.92486 | -79.23974 | 18970 ft | 410 kts | 115° |
| 2026-05-04 19:49 | 25.91455 | -79.21020 | 18970 ft | 410 kts | 115° |
| 2026-05-04 19:50 | 25.90425 | -79.18067 | 18967 ft | 410 kts | 115° |
| 2026-05-04 19:50 | 25.89396 | -79.15115 | 18969 ft | 410 kts | 115° |
| 2026-05-04 19:50 | 25.88364 | -79.12157 | 18970 ft | 410 kts | 115° |
| 2026-05-04 19:50 | 25.87333 | -79.09204 | 18971 ft | 410 kts | 115° |
| 2026-05-04 19:51 | 25.86301 | -79.06252 | 18971 ft | 410 kts | 115° |
| 2026-05-04 19:51 | 25.85268 | -79.03295 | 18978 ft | 410 kts | 115° |
| 2026-05-04 19:51 | 25.84236 | -79.00344 | 18977 ft | 410 kts | 115° |
| 2026-05-04 19:51 | 25.83205 | -78.97392 | 18971 ft | 410 kts | 115° |
| 2026-05-04 19:52 | 25.82169 | -78.94436 | 18973 ft | 410 kts | 115° |
| 2026-05-04 19:52 | 25.81133 | -78.91492 | 18974 ft | 410 kts | 115° |
| 2026-05-04 19:52 | 25.80106 | -78.88574 | 18968 ft | 410 kts | 115° |
| 2026-05-04 19:52 | 25.79070 | -78.85625 | 18978 ft | 410 kts | 115° |
| 2026-05-04 19:53 | 25.78033 | -78.82682 | 18969 ft | 410 kts | 115° |
| 2026-05-04 19:53 | 25.76995 | -78.79737 | 18974 ft | 410 kts | 115° |
| 2026-05-04 19:53 | 25.75952 | -78.76789 | 18968 ft | 410 kts | 115° |
| 2026-05-04 19:53 | 25.74913 | -78.73845 | 18974 ft | 410 kts | 115° |
| 2026-05-04 19:54 | 25.73705 | -78.71003 | 18975 ft | 405 kts | 124° |
| 2026-05-04 19:54 | 25.72168 | -78.68402 | 18976 ft | 403 kts | 129° |
| 2026-05-04 19:54 | 25.70592 | -78.65832 | 18968 ft | 403 kts | 128° |
| 2026-05-04 19:54 | 25.69017 | -78.63265 | 18964 ft | 403 kts | 128° |
| 2026-05-04 19:55 | 25.67436 | -78.60692 | 18973 ft | 403 kts | 128° |
| 2026-05-04 19:55 | 25.65858 | -78.58118 | 18970 ft | 403 kts | 128° |
| 2026-05-04 19:55 | 25.64280 | -78.55550 | 18974 ft | 403 kts | 128° |
| 2026-05-04 19:55 | 25.62706 | -78.52988 | 18921 ft | 401 kts | 128° |
| 2026-05-04 19:56 | 25.61152 | -78.50458 | 18628 ft | 393 kts | 128° |
| 2026-05-04 19:56 | 25.59618 | -78.47962 | 18191 ft | 391 kts | 128° |
| 2026-05-04 19:56 | 25.58057 | -78.45506 | 17731 ft | 386 kts | 134° |
| 2026-05-04 19:56 | 25.56236 | -78.43441 | 17308 ft | 376 kts | 145° |
| 2026-05-04 19:57 | 25.54229 | -78.41541 | 16870 ft | 373 kts | 145° |
| 2026-05-04 19:57 | 25.52269 | -78.39679 | 16455 ft | 370 kts | 145° |
| 2026-05-04 19:57 | 25.50348 | -78.37850 | 16063 ft | 367 kts | 145° |
| 2026-05-04 19:57 | 25.48422 | -78.36014 | 15646 ft | 364 kts | 145° |
| 2026-05-04 19:58 | 25.46505 | -78.34186 | 15266 ft | 361 kts | 144° |
| 2026-05-04 19:58 | 25.44615 | -78.32385 | 14877 ft | 358 kts | 145° |
| 2026-05-04 19:58 | 25.42727 | -78.30594 | 14480 ft | 356 kts | 145° |
| 2026-05-04 19:58 | 25.40851 | -78.28815 | 14085 ft | 355 kts | 145° |
| 2026-05-04 19:59 | 25.39001 | -78.27064 | 13690 ft | 353 kts | 145° |
| 2026-05-04 19:59 | 25.37138 | -78.25302 | 13277 ft | 351 kts | 144° |
| 2026-05-04 19:59 | 25.35295 | -78.23554 | 12889 ft | 348 kts | 144° |
| 2026-05-04 19:59 | 25.33467 | -78.21816 | 12504 ft | 345 kts | 144° |
| 2026-05-04 20:00 | 25.31655 | -78.20094 | 12120 ft | 343 kts | 144° |
| 2026-05-04 20:00 | 25.29855 | -78.18374 | 11749 ft | 341 kts | 141° |
| 2026-05-04 20:00 | 25.28457 | -78.16269 | 11459 ft | 344 kts | 114° |
| 2026-05-04 20:00 | 25.28080 | -78.13691 | 11155 ft | 341 kts | 83° |
| 2026-05-04 20:01 | 25.28683 | -78.11186 | 10827 ft | 336 kts | 68° |
| 2026-05-04 20:01 | 25.29480 | -78.08757 | 10445 ft | 336 kts | 68° |
| 2026-05-04 20:01 | 25.30269 | -78.06355 | 10260 ft | 328 kts | 68° |
| 2026-05-04 20:01 | 25.31038 | -78.04012 | 9995 ft | 323 kts | 68° |
| 2026-05-04 20:02 | 25.31710 | -78.01645 | 9668 ft | 322 kts | 76° |
| 2026-05-04 20:02 | 25.32090 | -77.99207 | 9331 ft | 320 kts | 82° |
| 2026-05-04 20:02 | 25.32300 | -77.96772 | 8997 ft | 317 kts | 85° |
| 2026-05-04 20:02 | 25.32444 | -77.94344 | 8674 ft | 315 kts | 86° |
| 2026-05-04 20:03 | 25.32578 | -77.91979 | 8371 ft | 312 kts | 85° |
| 2026-05-04 20:03 | 25.32734 | -77.89590 | 8044 ft | 310 kts | 85° |
| 2026-05-04 20:03 | 25.32732 | -77.87214 | 7725 ft | 307 kts | 98° |
| 2026-05-04 20:03 | 25.32182 | -77.84968 | 7237 ft | 301 kts | 115° |
| 2026-05-04 20:04 | 25.31135 | -77.82985 | 6651 ft | 297 kts | 126° |
| 2026-05-04 20:04 | 25.29987 | -77.81102 | 6077 ft | 294 kts | 125° |
| 2026-05-04 20:04 | 25.28864 | -77.79251 | 5602 ft | 286 kts | 125° |
| 2026-05-04 20:04 | 25.27777 | -77.77456 | 5225 ft | 276 kts | 125° |
| 2026-05-04 20:05 | 25.26727 | -77.75718 | 4875 ft | 267 kts | 125° |
| 2026-05-04 20:05 | 25.25716 | -77.74047 | 4521 ft | 258 kts | 125° |
| 2026-05-04 20:05 | 25.24752 | -77.72454 | 4432 ft | 240 kts | 125° |
| 2026-05-04 20:05 | 25.23836 | -77.70937 | 4348 ft | 235 kts | 125° |
| 2026-05-04 20:06 | 25.22931 | -77.69438 | 4247 ft | 234 kts | 125° |
| 2026-05-04 20:06 | 25.22023 | -77.67941 | 4159 ft | 235 kts | 125° |
| 2026-05-04 20:06 | 25.21128 | -77.66463 | 4046 ft | 226 kts | 125° |
| 2026-05-04 20:06 | 25.20272 | -77.65050 | 3950 ft | 217 kts | 125° |
| 2026-05-04 20:07 | 25.19453 | -77.63697 | 3895 ft | 206 kts | 125° |
| 2026-05-04 20:07 | 25.18577 | -77.62490 | 3640 ft | 204 kts | 135° |
| 2026-05-04 20:07 | 25.17596 | -77.61378 | 3376 ft | 200 kts | 136° |
| 2026-05-04 20:07 | 25.16621 | -77.60294 | 3127 ft | 197 kts | 136° |
| 2026-05-04 20:08 | 25.15660 | -77.59224 | 2872 ft | 195 kts | 136° |
| 2026-05-04 20:08 | 25.14712 | -77.58169 | 2631 ft | 191 kts | 137° |
| 2026-05-04 20:08 | 25.13816 | -77.57170 | 2387 ft | 188 kts | 137° |
| 2026-05-04 20:08 | 25.12905 | -77.56157 | 2148 ft | 184 kts | 137° |
| 2026-05-04 20:09 | 25.12011 | -77.55161 | 1917 ft | 182 kts | 137° |
| 2026-05-04 20:09 | 25.11122 | -77.54172 | 1680 ft | 181 kts | 136° |
| 2026-05-04 20:09 | 25.10240 | -77.53190 | 1439 ft | 180 kts | 137° |
| 2026-05-04 20:09 | 25.09356 | -77.52207 | 1209 ft | 179 kts | 137° |
| 2026-05-04 20:10 | 25.08481 | -77.51234 | 974 ft | 179 kts | 136° |
| 2026-05-04 20:10 | 25.07614 | -77.50270 | 763 ft | 170 kts | 133° |
| 2026-05-04 20:10 | 25.06829 | -77.49399 | 544 ft | 150 kts | 130° |
| 2026-05-04 20:10 | 25.06133 | -77.48620 | 287 ft | 137 kts | 130° |
| 2026-05-04 20:11 | 25.05472 | -77.47879 | 107 ft | 134 kts | 132° |
| 2026-05-04 20:11 | 25.04831 | -77.47164 | 12 ft | 119 kts | 133° |
| 2026-05-04 20:11 | 25.04372 | -77.46654 | 13 ft | 69 kts | 136° |
| 2026-05-04 20:11 | 25.04163 | -77.46391 | 10 ft | 30 kts | 118° |
| 2026-05-04 20:12 | 25.04124 | -77.46290 | 12 ft | 0 kts | 111° |
| 2026-05-04 20:12 | 25.04117 | -77.46268 | 14 ft | 4 kts | 107° |
| 2026-05-04 20:12 | 25.04110 | -77.46239 | 12 ft | 4 kts | 104° |
| 2026-05-04 20:13 | 25.04124 | -77.46185 | 13 ft | 11 kts | 43° |
| 2026-05-04 20:13 | 25.04188 | -77.46202 | 12 ft | 10 kts | 319° |
| 2026-05-04 20:13 | 25.04242 | -77.46260 | 13 ft | 11 kts | 314° |
| 2026-05-04 20:13 | 25.04294 | -77.46326 | 13 ft | 12 kts | 310° |
| 2026-05-04 20:14 | 25.04361 | -77.46394 | 12 ft | 17 kts | 320° |
| 2026-05-04 20:14 | 25.04459 | -77.46497 | 12 ft | 20 kts | 316° |
| 2026-05-04 20:14 | 25.04557 | -77.46607 | 13 ft | 20 kts | 314° |
| 2026-05-04 20:14 | 25.04656 | -77.46715 | 14 ft | 20 kts | 318° |
| 2026-05-04 20:15 | 25.04725 | -77.46787 | 14 ft | 0 kts | 311° |
| 2026-05-04 20:15 | 25.04735 | -77.46799 | 13 ft | 6 kts | 310° |
| 2026-05-04 20:15 | 25.04765 | -77.46837 | 12 ft | 7 kts | 312° |
| 2026-05-04 20:15 | 25.04796 | -77.46873 | 12 ft | 6 kts | 313° |
| 2026-05-04 20:16 | 25.04819 | -77.46899 | 13 ft | 4 kts | 316° |
| 2026-05-04 20:16 | 25.04836 | -77.46917 | 12 ft | 0 kts | 316° |
| 2026-05-04 20:18 | 25.04839 | -77.46920 | 15 ft | 3 kts | 316° |
| 2026-05-04 20:19 | 25.04863 | -77.46943 | 12 ft | 5 kts | 326° |
| 2026-05-04 20:19 | 25.04889 | -77.46946 | 14 ft | 0 kts | 8° |
| 2026-05-04 20:19 | 25.04890 | -77.46946 | 14 ft | 0 kts | 8° |
| 2026-05-04 20:19 | 25.04893 | -77.46944 | 13 ft | 4 kts | 16° |
| 2026-05-04 20:20 | 25.04954 | -77.46932 | 12 ft | 10 kts | 355° |
| 2026-05-04 20:20 | 25.05011 | -77.46948 | 12 ft | 2 kts | 347° |
| 2026-05-04 20:20 | 25.05029 | -77.46945 | 12 ft | 3 kts | 13° |
| 2026-05-04 20:20 | 25.05050 | -77.46938 | 12 ft | 1 kts | 20° |
| 2026-05-04 20:21 | 25.05058 | -77.46935 | 12 ft | 0 kts | 20° |